Time;durP1;ratioP1;P1;durP2;ratioP2;P2;SDS_P1;SDS_P2;PMS_P1;PMS_P2;Temp;Humidity;BMP_temperature;BMP_pressure;BME280_temperature;BME280_humidity;BME280_pressure;Samples;Min_cycle;Max_cycle;Signal;HPM_P1;HPM_P2
2023/11/12 00:01:28;;;;;;;;;;;;;;;;;;5089890;28;20595;-60
2023/11/12 00:03:56;;;;;;;;;;;;;;;;;;5090755;28;19928;-60
2023/11/12 00:06:22;;;;;;;;;;;;;;;;;;5089563;28;20339;-60
2023/11/12 00:08:48;;;;;;;;;;;;;;;;;;5089432;28;19920;-60
2023/11/12 00:11:14;;;;;;;;;;;;;;;;;;5089659;28;20034;-60
2023/11/12 00:13:42;;;;;;;;;;;;;;;;;;5087373;28;19942;-59
2023/11/12 00:16:08;;;;;;;;;;;;;;;;;;5087257;28;19920;-60
2023/11/12 00:18:35;;;;;;;;;;;;;;;;;;5087597;28;19974;-59
2023/11/12 00:21:01;;;;;;;;;;;;;;;;;;5089960;28;19924;-59
2023/11/12 00:23:27;;;;;;;;;;;;;;;;;;5086660;28;19924;-59
2023/11/12 00:25:53;;;;;;;;;;;;;;;;;;5086081;28;19989;-59
2023/11/12 00:28:19;;;;;;;;;;;;;;;;;;5087145;28;19924;-59
2023/11/12 00:30:45;;;;;;;;;;;;;;;;;;5082992;28;19999;-59
2023/11/12 00:33:11;;;;;;;;;;;;;;;;;;5085699;28;19927;-59
2023/11/12 00:35:37;;;;;;;;;;;;;;;;;;5089692;28;19924;-59
2023/11/12 00:38:04;;;;;;;;;;;;;;;;;;5089311;28;19924;-59
2023/11/12 00:40:32;;;;;;;;;;;;;;;;;;5089732;28;19924;-59
2023/11/12 00:42:58;;;;;;;;;;;;;;;;;;5088163;28;19924;-59
2023/11/12 00:45:24;;;;;;;;;;;;;;;;;;5084037;28;19931;-59
2023/11/12 00:47:49;;;;;;;;;;;;;;;;;;5065008;28;19928;-59
2023/11/12 00:50:16;;;;;;;;;;;;;;;;;;5070216;28;20376;-59
2023/11/12 00:52:42;;;;;;;;;;;;;;;;;;5086752;28;20261;-59
2023/11/12 00:55:08;;;;;;;;;;;;;;;;;;5090588;28;19949;-59
2023/11/12 00:57:34;;;;;;;;;;;;;;;;;;5089530;28;19928;-59
2023/11/12 01:00:00;;;;;;;;;;;;;;;;;;5088831;28;20045;-59
2023/11/12 01:02:28;;;;;;;;;;;;;;;;;;5083098;28;20404;-59
2023/11/12 01:04:54;;;;;;;;;;;;;;;;;;5083134;28;19931;-58
2023/11/12 01:07:20;;;;;;;;;;;;;;;;;;5084323;28;19924;-58
2023/11/12 01:09:46;;;;;;;;;;;;;;;;;;5091191;28;19951;-58
2023/11/12 01:12:13;;;;;;;;;;;;;;;;;;5093704;28;19920;-58
2023/11/12 01:14:39;;;;;;;;;;;;;;;;;;5093138;28;19920;-58
2023/11/12 01:17:05;;;;;;;;;;;;;;;;;;5084345;28;19920;-59
2023/11/12 01:19:31;;;;;;;;;;;;;;;;;;5089563;28;20049;-59
2023/11/12 01:21:57;;;;;;;;;;;;;;;;;;5090311;28;19928;-59
2023/11/12 01:24:26;;;;;;;;;;;;;;;;;;5090767;28;19965;-60
2023/11/12 01:26:51;;;;;;;;;;;;;;;;;;5093387;28;19928;-60
2023/11/12 01:29:17;;;;;;;;;;;;;;;;;;5090805;28;20574;-59
2023/11/12 01:31:45;;;;;;;;;;;;;;;;;;5068466;28;19942;-59
2023/11/12 01:34:11;;;;;;;;;;;;;;;;;;5089178;28;19927;-59
2023/11/12 01:36:37;;;;;;;;;;;;;;;;;;5090306;28;19982;-59
2023/11/12 01:39:03;;;;;;;;;;;;;;;;;;5089046;28;19952;-60
2023/11/12 01:41:29;;;;;;;;;;;;;;;;;;5089377;28;21257;-60
2023/11/12 01:43:55;;;;;;;;;;;;;;;;;;5085131;28;19928;-59
2023/11/12 01:46:21;;;;;;;;;;;;;;;;;;5087460;28;19951;-59
2023/11/12 01:48:47;;;;;;;;;;;;;;;;;;5090415;28;19966;-59
2023/11/12 01:51:13;;;;;;;;;;;;;;;;;;5087552;28;19942;-59
2023/11/12 01:53:40;;;;;;;;;;;;;;;;;;5088161;28;19928;-59
2023/11/12 01:56:07;;;;;;;;;;;;;;;;;;5087873;28;20007;-59
2023/11/12 01:58:33;;;;;;;;;;;;;;;;;;5091388;28;19924;-60
2023/11/12 02:00:59;;;;;;;;;;;;;;;;;;5086792;28;19919;-59
2023/11/12 02:03:25;;;;;;;;;;;;;;;;;;5085231;28;19934;-59
2023/11/12 02:05:51;;;;;;;;;;;;;;;;;;5090600;28;19924;-58
2023/11/12 02:08:17;;;;;;;;;;;;;;;;;;5089990;28;19923;-59
2023/11/12 02:10:48;;;;;;;;;;;;;;;;;;5089574;28;19925;-59
2023/11/12 02:13:14;;;;;;;;;;;;;;;;;;5084686;28;20335;-59
2023/11/12 02:15:40;;;;;;;;;;;;;;;;;;5085661;28;20018;-59
2023/11/12 02:18:06;;;;;;;;;;;;;;;;;;5090182;28;19931;-59
2023/11/12 02:20:32;;;;;;;;;;;;;;;;;;5089377;28;20061;-59
2023/11/12 02:22:57;;;;;;;;;;;;;;;;;;5090078;28;20015;-59
2023/11/12 02:25:23;;;;;;;;;;;;;;;;;;5087271;28;19949;-59
2023/11/12 02:27:49;;;;;;;;;;;;;;;;;;5090222;28;20154;-58
2023/11/12 02:30:18;;;;;;;;;;;;;;;;;;5085500;28;19927;-58
2023/11/12 02:32:44;;;;;;;;;;;;;;;;;;5090269;28;19920;-59
2023/11/12 02:35:11;;;;;;;;;;;;;;;;;;5090966;28;19928;-59
2023/11/12 02:37:37;;;;;;;;;;;;;;;;;;5092198;28;19920;-59
2023/11/12 02:40:03;;;;;;;;;;;;;;;;;;5085380;28;19974;-59
2023/11/12 02:42:29;;;;;;;;;;;;;;;;;;5089099;28;19990;-60
2023/11/12 02:44:56;;;;;;;;;;;;;;;;;;5089032;28;19927;-60
2023/11/12 02:47:22;;;;;;;;;;;;;;;;;;5090273;28;19920;-59
2023/11/12 02:49:48;;;;;;;;;;;;;;;;;;5089287;28;20026;-59
2023/11/12 02:52:13;;;;;;;;;;;;;;;;;;5089368;28;20319;-60
2023/11/12 02:54:39;;;;;;;;;;;;;;;;;;5089465;28;19928;-59
2023/11/12 02:57:05;;;;;;;;;;;;;;;;;;5081450;28;19963;-60
2023/11/12 02:59:31;;;;;;;;;;;;;;;;;;5089746;28;19946;-59
2023/11/12 03:01:57;;;;;;;;;;;;;;;;;;5089167;28;19998;-59
2023/11/12 03:04:23;;;;;;;;;;;;;;;;;;5106522;28;19924;-59
2023/11/12 03:06:49;;;;;;;;;;;;;;;;;;5090208;28;19975;-60
2023/11/12 03:09:15;;;;;;;;;;;;;;;;;;5089553;28;19927;-60
2023/11/12 03:11:41;;;;;;;;;;;;;;;;;;5088932;28;19924;-60
2023/11/12 03:14:07;;;;;;;;;;;;;;;;;;5090714;28;20366;-60
2023/11/12 03:16:33;;;;;;;;;;;;;;;;;;5090144;28;19924;-60
2023/11/12 03:19:00;;;;;;;;;;;;;;;;;;5091174;28;19977;-60
2023/11/12 03:21:26;;;;;;;;;;;;;;;;;;5090811;28;20015;-59
2023/11/12 03:23:52;;;;;;;;;;;;;;;;;;5089679;28;20016;-60
2023/11/12 03:26:18;;;;;;;;;;;;;;;;;;5087409;28;19928;-60
2023/11/12 03:28:44;;;;;;;;;;;;;;;;;;5091030;28;20269;-60
2023/11/12 03:31:10;;;;;;;;;;;;;;;;;;5079472;28;19924;-59
2023/11/12 03:33:36;;;;;;;;;;;;;;;;;;5088083;28;19924;-60
2023/11/12 03:36:02;;;;;;;;;;;;;;;;;;5082691;28;19952;-60
2023/11/12 03:38:29;;;;;;;;;;;;;;;;;;5091167;28;19920;-60
2023/11/12 03:40:55;;;;;;;;;;;;;;;;;;5088801;28;19931;-60
2023/11/12 03:43:21;;;;;;;;;;;;;;;;;;5081382;28;19924;-60
2023/11/12 03:45:47;;;;;;;;;;;;;;;;;;5089903;28;19947;-60
2023/11/12 03:48:13;;;;;;;;;;;;;;;;;;5079765;28;19924;-60
2023/11/12 03:50:39;;;;;;;;;;;;;;;;;;5084784;28;19924;-60
2023/11/12 03:53:05;;;;;;;;;;;;;;;;;;5090597;28;19959;-60
2023/11/12 03:55:31;;;;;;;;;;;;;;;;;;5089490;28;19970;-60
2023/11/12 03:57:57;;;;;;;;;;;;;;;;;;5085714;28;19924;-60
2023/11/12 04:00:24;;;;;;;;;;;;;;;;;;5090348;28;19973;-60
2023/11/12 04:02:50;;;;;;;;;;;;;;;;;;5084267;28;19977;-60
2023/11/12 04:05:16;;;;;;;;;;;;;;;;;;5094358;28;19920;-60
2023/11/12 04:07:41;;;;;;;;;;;;;;;;;;5094223;28;20258;-60
2023/11/12 04:10:07;;;;;;;;;;;;;;;;;;5094939;28;20010;-60
2023/11/12 04:12:33;;;;;;;;;;;;;;;;;;5073348;28;19973;-60
2023/11/12 04:14:59;;;;;;;;;;;;;;;;;;5093638;28;19971;-60
2023/11/12 04:17:25;;;;;;;;;;;;;;;;;;5084167;28;20003;-60
2023/11/12 04:19:51;;;;;;;;;;;;;;;;;;5092759;28;19930;-60
2023/11/12 04:22:17;;;;;;;;;;;;;;;;;;5092000;28;19937;-60
2023/11/12 04:24:43;;;;;;;;;;;;;;;;;;5089422;28;20432;-59
2023/11/12 04:27:09;;;;;;;;;;;;;;;;;;5093962;28;19931;-59
2023/11/12 04:29:35;;;;;;;;;;;;;;;;;;5092519;28;20354;-60
2023/11/12 04:32:03;;;;;;;;;;;;;;;;;;5090466;28;19924;-60
2023/11/12 04:34:29;;;;;;;;;;;;;;;;;;5090557;28;19924;-60
2023/11/12 04:36:56;;;;;;;;;;;;;;;;;;5092289;28;20311;-60
2023/11/12 04:39:22;;;;;;;;;;;;;;;;;;5088254;28;20285;-60
2023/11/12 04:41:48;;;;;;;;;;;;;;;;;;5085397;28;19920;-60
2023/11/12 04:44:14;;;;;;;;;;;;;;;;;;5093028;28;19924;-60
2023/11/12 04:46:39;;;;;;;;;;;;;;;;;;5093166;28;20130;-59
2023/11/12 04:49:05;;;;;;;;;;;;;;;;;;5082909;28;19923;-59
2023/11/12 04:51:31;;;;;;;;;;;;;;;;;;5093614;28;19920;-59
2023/11/12 04:53:57;;;;;;;;;;;;;;;;;;5092797;28;19929;-59
2023/11/12 04:56:23;;;;;;;;;;;;;;;;;;5092539;28;19928;-59
2023/11/12 04:58:49;;;;;;;;;;;;;;;;;;5094471;28;19931;-59
2023/11/12 05:01:15;;;;;;;;;;;;;;;;;;5094325;28;20541;-60
2023/11/12 05:03:41;;;;;;;;;;;;;;;;;;5088697;28;20050;-60
2023/11/12 05:06:07;;;;;;;;;;;;;;;;;;5093990;28;19920;-60
2023/11/12 05:08:33;;;;;;;;;;;;;;;;;;5092407;28;19920;-60
2023/11/12 05:10:59;;;;;;;;;;;;;;;;;;5091968;28;19930;-61
2023/11/12 05:13:25;;;;;;;;;;;;;;;;;;5091177;28;20030;-63
2023/11/12 05:15:51;;;;;;;;;;;;;;;;;;5092766;28;19928;-60
2023/11/12 05:18:17;;;;;;;;;;;;;;;;;;5090076;28;19921;-60
2023/11/12 05:20:43;;;;;;;;;;;;;;;;;;5090964;28;19965;-59
2023/11/12 05:23:09;;;;;;;;;;;;;;;;;;5094052;28;20473;-59
2023/11/12 05:25:35;;;;;;;;;;;;;;;;;;5087005;28;19924;-59
2023/11/12 05:28:01;;;;;;;;;;;;;;;;;;5088735;28;19927;-59
2023/11/12 05:30:27;;;;;;;;;;;;;;;;;;5091961;28;19924;-59
2023/11/12 05:32:53;;;;;;;;;;;;;;;;;;5068049;28;20637;-60
2023/11/12 05:35:19;;;;;;;;;;;;;;;;;;5086888;28;19960;-60
2023/11/12 05:37:47;;;;;;;;;;;;;;;;;;5093200;28;19962;-60
2023/11/12 05:40:13;;;;;;;;;;;;;;;;;;5090732;28;19934;-60
2023/11/12 05:42:39;;;;;;;;;;;;;;;;;;5090676;28;20474;-60
2023/11/12 05:45:05;;;;;;;;;;;;;;;;;;5090818;28;19924;-60
2023/11/12 05:47:31;;;;;;;;;;;;;;;;;;5090983;28;19920;-60
2023/11/12 05:49:57;;;;;;;;;;;;;;;;;;5083230;28;20040;-60
2023/11/12 05:52:23;;;;;;;;;;;;;;;;;;5092104;28;19924;-60
2023/11/12 05:54:49;;;;;;;;;;;;;;;;;;5091822;28;20377;-60
2023/11/12 05:57:15;;;;;;;;;;;;;;;;;;5091299;28;19924;-60
2023/11/12 05:59:41;;;;;;;;;;;;;;;;;;5091741;28;19973;-59
2023/11/12 06:02:07;;;;;;;;;;;;;;;;;;5088462;28;20370;-59
2023/11/12 06:04:33;;;;;;;;;;;;;;;;;;5089945;28;19924;-59
2023/11/12 06:06:58;;;;;;;;;;;;;;;;;;5090891;28;19928;-59
2023/11/12 06:09:24;;;;;;;;;;;;;;;;;;5091521;28;19927;-59
2023/11/12 06:11:53;;;;;;;;;;;;;;;;;;5087186;28;20683;-59
2023/11/12 06:14:21;;;;;;;;;;;;;;;;;;5092042;28;19924;-59
2023/11/12 06:16:47;;;;;;;;;;;;;;;;;;5091647;28;19973;-59
2023/11/12 06:19:13;;;;;;;;;;;;;;;;;;5092903;28;19920;-59
2023/11/12 06:21:39;;;;;;;;;;;;;;;;;;5086589;28;19928;-59
2023/11/12 06:26:33;;;;;;;;;;;;;;;;;;5056287;28;20523;-63
2023/11/12 06:28:59;;;;;;;;;;;;;;;;;;5051422;28;19935;-63
2023/11/12 06:31:25;;;;;;;;;;;;;;;;;;5032868;28;19920;-62
2023/11/12 06:33:51;;;;;;;;;;;;;;;;;;5054890;28;19920;-63
2023/11/12 06:36:17;;;;;;;;;;;;;;;;;;5044105;28;19925;-63
2023/11/12 06:38:43;;;;;;;;;;;;;;;;;;5051218;28;19963;-62
2023/11/12 06:41:09;;;;;;;;;;;;;;;;;;5050031;28;19956;-62
2023/11/12 06:43:35;;;;;;;;;;;;;;;;;;5048019;28;20477;-62
2023/11/12 06:46:01;;;;;;;;;;;;;;;;;;5049353;28;19929;-63
2023/11/12 06:48:27;;;;;;;;;;;;;;;;;;5051666;28;20402;-63
2023/11/12 06:50:53;;;;;;;;;;;;;;;;;;5047450;28;19921;-63
2023/11/12 06:53:19;;;;;;;;;;;;;;;;;;5049055;28;19921;-63
2023/11/12 06:55:45;;;;;;;;;;;;;;;;;;5050588;28;19970;-63
2023/11/12 06:58:11;;;;;;;;;;;;;;;;;;5050371;28;19925;-62
2023/11/12 07:00:37;;;;;;;;;;;;;;;;;;5048589;28;20370;-63
2023/11/12 07:03:02;;;;;;;;;;;;;;;;;;5045801;28;20000;-63
2023/11/12 07:05:31;;;;;;;;;;;;;;;;;;5048288;28;20293;-63
2023/11/12 07:07:57;;;;;;;;;;;;;;;;;;5050170;28;19925;-63
2023/11/12 07:10:23;;;;;;;;;;;;;;;;;;5051171;28;19921;-63
2023/11/12 07:12:49;;;;;;;;;;;;;;;;;;5051191;28;20577;-63
2023/11/12 07:15:15;;;;;;;;;;;;;;;;;;5051041;28;19932;-63
2023/11/12 07:17:43;;;;;;;;;;;;;;;;;;5040789;28;19956;-63
2023/11/12 07:20:11;;;;;;;;;;;;;;;;;;5050647;28;19924;-63
2023/11/12 07:22:37;;;;;;;;;;;;;;;;;;5050418;28;20258;-62
2023/11/12 07:25:03;;;;;;;;;;;;;;;;;;5023656;28;19925;-63
2023/11/12 07:27:30;;;;;;;;;;;;;;;;;;5031048;28;20379;-63
2023/11/12 07:29:57;;;;;;;;;;;;;;;;;;5031137;28;19921;-63
2023/11/12 07:32:23;;;;;;;;;;;;;;;;;;5028359;28;19921;-63
2023/11/12 07:34:49;;;;;;;;;;;;;;;;;;5033808;28;19925;-63
2023/11/12 07:37:14;;;;;;;;;;;;;;;;;;5027760;28;20450;-63
2023/11/12 07:39:40;;;;;;;;;;;;;;;;;;5035188;28;19929;-63
2023/11/12 07:42:06;;;;;;;;;;;;;;;;;;5035302;28;19972;-62
2023/11/12 07:44:32;;;;;;;;;;;;;;;;;;5033106;28;19925;-62
2023/11/12 07:46:58;;;;;;;;;;;;;;;;;;5033951;28;19932;-62
2023/11/12 07:49:24;;;;;;;;;;;;;;;;;;5034850;28;20282;-63
2023/11/12 07:51:51;;;;;;;;;;;;;;;;;;5031011;28;19921;-62
2023/11/12 07:54:16;;;;;;;;;;;;;;;;;;5034422;28;19932;-62
2023/11/12 07:56:43;;;;;;;;;;;;;;;;;;5034720;28;19921;-62
2023/11/12 07:59:09;;;;;;;;;;;;;;;;;;5033466;28;19929;-62
2023/11/12 08:01:35;;;;;;;;;;;;;;;;;;5029927;28;19975;-62
2023/11/12 08:04:01;;;;;;;;;;;;;;;;;;5024547;28;20020;-62
2023/11/12 08:06:27;;;;;;;;;;;;;;;;;;5026053;28;19976;-63
2023/11/12 08:08:53;;;;;;;;;;;;;;;;;;5034830;28;19925;-62
2023/11/12 08:11:19;;;;;;;;;;;;;;;;;;5034154;28;20282;-63
2023/11/12 08:13:45;;;;;;;;;;;;;;;;;;5034745;28;19933;-63
2023/11/12 08:16:11;;;;;;;;;;;;;;;;;;5034614;28;19925;-63
2023/11/12 08:18:37;;;;;;;;;;;;;;;;;;5034583;28;19929;-63
2023/11/12 08:21:03;;;;;;;;;;;;;;;;;;5034548;28;19967;-62
2023/11/12 08:23:29;;;;;;;;;;;;;;;;;;5025348;28;19941;-63
2023/11/12 08:25:54;;;;;;;;;;;;;;;;;;5045581;28;19929;-62
2023/11/12 08:28:23;;;;;;;;;;;;;;;;;;5053874;28;19940;-63
2023/11/12 08:30:49;;;;;;;;;;;;;;;;;;5053884;28;19921;-63
2023/11/12 08:33:15;;;;;;;;;;;;;;;;;;5036102;28;19928;-63
2023/11/12 08:35:41;;;;;;;;;;;;;;;;;;5053017;28;20358;-64
2023/11/12 08:38:07;;;;;;;;;;;;;;;;;;5049810;28;19943;-64
2023/11/12 08:40:33;;;;;;;;;;;;;;;;;;5050273;28;19925;-67
2023/11/12 08:42:59;;;;;;;;;;;;;;;;;;5052637;28;19932;-63
2023/11/12 08:45:25;;;;;;;;;;;;;;;;;;5049954;28;20208;-63
2023/11/12 08:47:51;;;;;;;;;;;;;;;;;;5033864;28;20166;-63
2023/11/12 08:50:17;;;;;;;;;;;;;;;;;;5051188;28;19921;-63
2023/11/12 08:52:43;;;;;;;;;;;;;;;;;;5048938;28;19928;-63
2023/11/12 08:55:09;;;;;;;;;;;;;;;;;;5053841;28;19925;-63
2023/11/12 08:57:35;;;;;;;;;;;;;;;;;;5046591;28;19967;-63
2023/11/12 09:00:05;;;;;;;;;;;;;;;;;;5056354;28;20324;-63
2023/11/12 09:02:31;;;;;;;;;;;;;;;;;;5049529;28;19972;-63
2023/11/12 09:04:57;;;;;;;;;;;;;;;;;;5032334;28;19968;-63
2023/11/12 09:07:23;;;;;;;;;;;;;;;;;;5052693;28;20349;-63
2023/11/12 09:09:49;;;;;;;;;;;;;;;;;;5048896;28;19931;-63
2023/11/12 09:12:15;;;;;;;;;;;;;;;;;;5052582;28;19921;-63
2023/11/12 09:14:41;;;;;;;;;;;;;;;;;;5049173;28;19928;-63
2023/11/12 09:17:07;;;;;;;;;;;;;;;;;;5049376;28;20305;-63
2023/11/12 09:19:33;;;;;;;;;;;;;;;;;;5049144;28;19927;-63
2023/11/12 09:21:58;;;;;;;;;;;;;;;;;;5035780;28;19931;-63
2023/11/12 09:24:24;;;;;;;;;;;;;;;;;;5046261;28;20260;-63
2023/11/12 09:26:50;;;;;;;;;;;;;;;;;;5033067;28;19932;-63
2023/11/12 09:29:16;;;;;;;;;;;;;;;;;;5051951;28;19925;-63
2023/11/12 09:31:42;;;;;;;;;;;;;;;;;;5050653;28;19921;-62
2023/11/12 09:34:09;;;;;;;;;;;;;;;;;;5032367;28;19970;-63
2023/11/12 09:36:35;;;;;;;;;;;;;;;;;;5047668;28;19924;-62
2023/11/12 09:39:03;;;;;;;;;;;;;;;;;;5050142;28;19974;-63
2023/11/12 09:41:29;;;;;;;;;;;;;;;;;;5033112;28;19967;-62
2023/11/12 09:43:55;;;;;;;;;;;;;;;;;;5051637;28;19921;-63
2023/11/12 09:46:24;;;;;;;;;;;;;;;;;;5034683;28;19935;-63
2023/11/12 09:48:50;;;;;;;;;;;;;;;;;;5049076;28;20018;-62
2023/11/12 09:51:16;;;;;;;;;;;;;;;;;;5048329;28;19929;-63
2023/11/12 09:53:42;;;;;;;;;;;;;;;;;;5050042;28;19924;-63
2023/11/12 09:56:08;;;;;;;;;;;;;;;;;;5049824;28;20279;-63
2023/11/12 09:58:35;;;;;;;;;;;;;;;;;;5052001;28;19921;-62
2023/11/12 10:01:00;;;;;;;;;;;;;;;;;;5029608;28;19925;-63
2023/11/12 10:03:26;;;;;;;;;;;;;;;;;;5041933;28;19924;-63
2023/11/12 10:05:54;;;;;;;;;;;;;;;;;;5049210;28;21464;-63
2023/11/12 10:08:20;;;;;;;;;;;;;;;;;;5051009;28;19921;-63
2023/11/12 10:10:47;;;;;;;;;;;;;;;;;;5025718;28;20357;-63
2023/11/12 10:13:13;;;;;;;;;;;;;;;;;;5045883;28;19968;-63
2023/11/12 10:15:39;;;;;;;;;;;;;;;;;;5050544;28;19952;-63
2023/11/12 10:18:06;;;;;;;;;;;;;;;;;;5050692;28;19967;-63
2023/11/12 10:20:32;;;;;;;;;;;;;;;;;;5049778;28;19931;-63
2023/11/12 10:22:58;;;;;;;;;;;;;;;;;;5049387;28;19929;-63
2023/11/12 10:25:24;;;;;;;;;;;;;;;;;;5048760;28;19966;-63
2023/11/12 10:27:50;;;;;;;;;;;;;;;;;;5045810;28;19924;-62
2023/11/12 10:30:17;;;;;;;;;;;;;;;;;;5047489;28;19956;-63
2023/11/12 10:32:43;;;;;;;;;;;;;;;;;;5032901;28;20027;-63
2023/11/12 10:35:10;;;;;;;;;;;;;;;;;;5050959;28;20397;-63
2023/11/12 10:37:36;;;;;;;;;;;;;;;;;;5027478;28;19925;-63
2023/11/12 10:40:02;;;;;;;;;;;;;;;;;;5051637;28;19925;-62
2023/11/12 10:42:29;;;;;;;;;;;;;;;;;;5032919;28;20019;-62
2023/11/12 10:44:55;;;;;;;;;;;;;;;;;;5044498;28;20026;-63
2023/11/12 10:47:21;;;;;;;;;;;;;;;;;;5048048;28;20370;-63
2023/11/12 10:49:47;;;;;;;;;;;;;;;;;;5048390;28;19927;-63
2023/11/12 10:52:13;;;;;;;;;;;;;;;;;;5048528;28;20019;-63
2023/11/12 10:54:39;;;;;;;;;;;;;;;;;;5029444;28;19920;-63
2023/11/12 10:57:06;;;;;;;;;;;;;;;;;;5048665;28;19927;-63
2023/11/12 10:59:32;;;;;;;;;;;;;;;;;;5046477;28;20467;-63
2023/11/12 11:01:59;;;;;;;;;;;;;;;;;;5044656;28;19924;-63
2023/11/12 11:04:26;;;;;;;;;;;;;;;;;;5029650;28;19924;-63
2023/11/12 11:06:52;;;;;;;;;;;;;;;;;;5050086;28;20506;-63
2023/11/12 11:09:19;;;;;;;;;;;;;;;;;;5049104;28;19925;-63
2023/11/12 11:11:45;;;;;;;;;;;;;;;;;;5049221;28;19978;-63
2023/11/12 11:14:11;;;;;;;;;;;;;;;;;;5047159;28;20139;-63
2023/11/12 11:16:37;;;;;;;;;;;;;;;;;;5031583;28;19947;-63
2023/11/12 11:19:03;;;;;;;;;;;;;;;;;;5049870;28;19935;-63
2023/11/12 11:21:29;;;;;;;;;;;;;;;;;;5051072;28;20386;-63
2023/11/12 11:23:55;;;;;;;;;;;;;;;;;;5050335;28;20354;-63
2023/11/12 11:26:21;;;;;;;;;;;;;;;;;;5047500;28;19933;-61
2023/11/12 11:28:47;;;;;;;;;;;;;;;;;;5046113;28;19924;-62
2023/11/12 11:31:13;;;;;;;;;;;;;;;;;;5048156;28;19921;-62
2023/11/12 11:33:39;;;;;;;;;;;;;;;;;;5050703;28;19933;-63
2023/11/12 11:36:05;;;;;;;;;;;;;;;;;;5028832;28;22601;-62
2023/11/12 11:38:33;;;;;;;;;;;;;;;;;;5044893;28;19921;-62
2023/11/12 11:40:59;;;;;;;;;;;;;;;;;;5046247;28;19928;-62
2023/11/12 11:43:25;;;;;;;;;;;;;;;;;;5030730;28;19932;-62
2023/11/12 11:45:51;;;;;;;;;;;;;;;;;;5049627;28;20325;-62
2023/11/12 11:48:17;;;;;;;;;;;;;;;;;;5049434;28;19936;-62
2023/11/12 11:50:43;;;;;;;;;;;;;;;;;;5049205;28;19947;-61
2023/11/12 11:53:08;;;;;;;;;;;;;;;;;;5050856;28;20571;-63
2023/11/12 11:55:34;;;;;;;;;;;;;;;;;;5030163;28;20279;-63
2023/11/12 11:58:00;;;;;;;;;;;;;;;;;;5044352;28;19925;-63
2023/11/12 12:00:26;;;;;;;;;;;;;;;;;;5047031;28;19928;-62
2023/11/12 12:02:53;;;;;;;;;;;;;;;;;;5050882;28;20382;-62
2023/11/12 12:05:19;;;;;;;;;;;;;;;;;;5048507;28;19920;-62
2023/11/12 12:07:45;;;;;;;;;;;;;;;;;;5044535;28;19978;-62
2023/11/12 12:10:11;;;;;;;;;;;;;;;;;;5050721;28;19921;-62
2023/11/12 12:12:37;;;;;;;;;;;;;;;;;;5050101;28;19979;-62
2023/11/12 12:15:03;;;;;;;;;;;;;;;;;;5050522;28;19952;-62
2023/11/12 12:17:29;;;;;;;;;;;;;;;;;;5049739;28;19921;-62
2023/11/12 12:19:55;;;;;;;;;;;;;;;;;;5032647;28;19964;-62
2023/11/12 12:22:21;;;;;;;;;;;;;;;;;;5045174;28;19943;-62
2023/11/12 12:24:47;;;;;;;;;;;;;;;;;;5052731;28;20460;-62
2023/11/12 12:27:13;;;;;;;;;;;;;;;;;;5035662;28;20083;-62
2023/11/12 12:29:39;;;;;;;;;;;;;;;;;;5053175;28;20317;-62
2023/11/12 12:32:05;;;;;;;;;;;;;;;;;;5052677;28;19921;-62
2023/11/12 12:34:31;;;;;;;;;;;;;;;;;;5054168;28;19927;-62
2023/11/12 12:36:59;;;;;;;;;;;;;;;;;;5049585;28;19925;-62
2023/11/12 12:39:26;;;;;;;;;;;;;;;;;;5053917;28;19921;-62
2023/11/12 12:41:52;;;;;;;;;;;;;;;;;;5053088;28;19928;-62
2023/11/12 12:44:18;;;;;;;;;;;;;;;;;;5053991;28;20036;-62
2023/11/12 12:46:45;;;;;;;;;;;;;;;;;;5047952;28;20197;-62
2023/11/12 12:49:11;;;;;;;;;;;;;;;;;;5047916;28;19938;-62
2023/11/12 12:51:37;;;;;;;;;;;;;;;;;;5052644;28;20405;-63
2023/11/12 12:54:04;;;;;;;;;;;;;;;;;;5050883;28;19927;-62
2023/11/12 12:56:30;;;;;;;;;;;;;;;;;;5052179;28;19931;-63
2023/11/12 12:58:57;;;;;;;;;;;;;;;;;;5052754;28;19925;-62
2023/11/12 13:01:23;;;;;;;;;;;;;;;;;;5035064;28;19920;-63
2023/11/12 13:03:50;;;;;;;;;;;;;;;;;;5037350;28;20018;-62
2023/11/12 13:06:16;;;;;;;;;;;;;;;;;;5053415;28;19921;-62
2023/11/12 13:08:43;;;;;;;;;;;;;;;;;;5048617;28;20682;-62
2023/11/12 13:11:10;;;;;;;;;;;;;;;;;;5053171;28;19921;-62
2023/11/12 13:13:36;;;;;;;;;;;;;;;;;;5053092;28;20566;-63
2023/11/12 13:16:02;;;;;;;;;;;;;;;;;;5052869;28;20439;-62
2023/11/12 13:18:29;;;;;;;;;;;;;;;;;;5052697;28;19931;-62
2023/11/12 13:20:55;;;;;;;;;;;;;;;;;;5052480;28;19925;-62
2023/11/12 13:23:22;;;;;;;;;;;;;;;;;;5047182;28;19925;-62
2023/11/12 13:25:49;;;;;;;;;;;;;;;;;;5046748;28;19933;-62
2023/11/12 13:28:16;;;;;;;;;;;;;;;;;;5050568;28;20680;-62
2023/11/12 13:30:42;;;;;;;;;;;;;;;;;;5050936;28;19996;-63
2023/11/12 13:33:09;;;;;;;;;;;;;;;;;;5047743;28;19924;-62
2023/11/12 13:35:35;;;;;;;;;;;;;;;;;;5032127;28;19921;-63
2023/11/12 13:38:01;;;;;;;;;;;;;;;;;;5034278;28;19971;-62
2023/11/12 13:40:27;;;;;;;;;;;;;;;;;;5030314;28;20439;-63
2023/11/12 13:42:54;;;;;;;;;;;;;;;;;;5051654;28;19928;-63
2023/11/12 13:45:20;;;;;;;;;;;;;;;;;;5051505;28;19921;-62
2023/11/12 13:47:46;;;;;;;;;;;;;;;;;;5034814;28;19939;-62
2023/11/12 13:50:13;;;;;;;;;;;;;;;;;;5048119;28;19974;-62
2023/11/12 13:52:39;;;;;;;;;;;;;;;;;;5049780;28;20317;-63
2023/11/12 13:55:05;;;;;;;;;;;;;;;;;;5047637;28;19925;-63
2023/11/12 13:57:34;;;;;;;;;;;;;;;;;;5051809;28;20020;-62
2023/11/12 14:00:00;;;;;;;;;;;;;;;;;;5049651;28;19989;-62
2023/11/12 14:02:26;;;;;;;;;;;;;;;;;;5051035;28;20465;-63
2023/11/12 14:04:52;;;;;;;;;;;;;;;;;;5044804;28;19933;-62
2023/11/12 14:07:18;;;;;;;;;;;;;;;;;;5041870;28;19974;-62
2023/11/12 14:09:47;;;;;;;;;;;;;;;;;;5048773;28;19937;-62
2023/11/12 14:12:13;;;;;;;;;;;;;;;;;;5029461;28;19931;-63
2023/11/12 14:14:39;;;;;;;;;;;;;;;;;;5049969;28;20341;-62
2023/11/12 14:17:07;;;;;;;;;;;;;;;;;;5048637;28;19971;-62
2023/11/12 14:19:34;;;;;;;;;;;;;;;;;;5051035;28;20487;-62
2023/11/12 14:22:00;;;;;;;;;;;;;;;;;;5030026;28;20000;-63
2023/11/12 14:24:26;;;;;;;;;;;;;;;;;;5045114;28;19932;-62
2023/11/12 14:26:52;;;;;;;;;;;;;;;;;;5049475;28;20392;-63
2023/11/12 14:29:19;;;;;;;;;;;;;;;;;;5031349;28;19929;-63
2023/11/12 14:31:44;;;;;;;;;;;;;;;;;;5045020;28;19921;-63
2023/11/12 14:34:14;;;;;;;;;;;;;;;;;;5056702;28;20271;-63
2023/11/12 14:36:40;;;;;;;;;;;;;;;;;;5051075;28;20360;-63
2023/11/12 14:39:09;;;;;;;;;;;;;;;;;;5042436;28;20011;-59
2023/11/12 14:41:36;;;;;;;;;;;;;;;;;;5048712;28;19968;-61
2023/11/12 14:44:02;;;;;;;;;;;;;;;;;;5032074;28;19921;-60
2023/11/12 14:46:33;;;;;;;;;;;;;;;;;;5049233;28;19988;-59
2023/11/12 14:49:00;;;;;;;;;;;;;;;;;;5051512;28;20434;-59
2023/11/12 14:51:26;;;;;;;;;;;;;;;;;;5028605;28;19944;-59
2023/11/12 14:53:54;;;;;;;;;;;;;;;;;;5046262;28;20281;-59
2023/11/12 14:56:19;;;;;;;;;;;;;;;;;;5046749;28;19921;-59
2023/11/12 14:58:45;;;;;;;;;;;;;;;;;;5050722;28;19935;-59
2023/11/12 15:01:12;;;;;;;;;;;;;;;;;;5050277;28;20393;-59
2023/11/12 15:03:38;;;;;;;;;;;;;;;;;;5030842;28;20548;-58
2023/11/12 15:06:05;;;;;;;;;;;;;;;;;;5061134;28;19933;-59
2023/11/12 15:08:32;;;;;;;;;;;;;;;;;;5044953;28;19997;-59
2023/11/12 15:10:58;;;;;;;;;;;;;;;;;;5042733;28;19931;-59
2023/11/12 15:13:24;;;;;;;;;;;;;;;;;;5033475;28;19947;-59
2023/11/12 15:15:49;;;;;;;;;;;;;;;;;;5031285;28;19939;-59
2023/11/12 15:18:16;;;;;;;;;;;;;;;;;;5049480;28;19928;-59
2023/11/12 15:20:44;;;;;;;;;;;;;;;;;;5049085;28;20457;-59
2023/11/12 15:23:09;;;;;;;;;;;;;;;;;;5046169;28;19928;-58
2023/11/12 15:25:38;;;;;;;;;;;;;;;;;;5046411;28;19929;-58
2023/11/12 15:28:03;;;;;;;;;;;;;;;;;;5046699;28;19932;-58
2023/11/12 15:30:29;;;;;;;;;;;;;;;;;;5050425;28;20279;-58
2023/11/12 15:32:55;;;;;;;;;;;;;;;;;;5033952;28;19921;-58
2023/11/12 15:35:21;;;;;;;;;;;;;;;;;;5051949;28;19921;-58
2023/11/12 15:37:47;;;;;;;;;;;;;;;;;;5042966;28;20673;-58
2023/11/12 15:40:22;;;;;;;;;;;;;;;;;;5026371;28;19925;-58
2023/11/12 15:42:48;;;;;;;;;;;;;;;;;;5048517;28;20395;-58
2023/11/12 15:45:15;;;;;;;;;;;;;;;;;;5031176;28;19924;-59
2023/11/12 15:47:41;;;;;;;;;;;;;;;;;;5045765;28;19956;-58
2023/11/12 15:50:09;;;;;;;;;;;;;;;;;;5046509;28;19948;-59
2023/11/12 15:52:35;;;;;;;;;;;;;;;;;;5042470;28;19927;-59
2023/11/12 15:55:01;;;;;;;;;;;;;;;;;;5046120;28;19929;-59
2023/11/12 15:57:26;;;;;;;;;;;;;;;;;;5048248;28;19924;-59
2023/11/12 15:59:52;;;;;;;;;;;;;;;;;;5048462;28;19978;-59
2023/11/12 16:02:18;;;;;;;;;;;;;;;;;;5030613;28;19936;-59
2023/11/12 16:04:44;;;;;;;;;;;;;;;;;;5048511;28;19930;-59
2023/11/12 16:07:10;;;;;;;;;;;;;;;;;;5052254;28;20382;-59
2023/11/12 16:09:36;;;;;;;;;;;;;;;;;;5052909;28;19925;-59
2023/11/12 16:12:02;;;;;;;;;;;;;;;;;;5053718;28;19924;-59
2023/11/12 16:14:28;;;;;;;;;;;;;;;;;;5049958;28;20023;-59
2023/11/12 16:16:54;;;;;;;;;;;;;;;;;;5052398;28;19925;-59
2023/11/12 16:19:20;;;;;;;;;;;;;;;;;;5035630;28;19967;-59
2023/11/12 16:21:46;;;;;;;;;;;;;;;;;;5056046;28;20371;-59
2023/11/12 16:24:12;;;;;;;;;;;;;;;;;;5053750;28;19936;-60
2023/11/12 16:26:38;;;;;;;;;;;;;;;;;;5049555;28;19933;-59
2023/11/12 16:29:04;;;;;;;;;;;;;;;;;;5050742;28;19928;-59
2023/11/12 16:31:30;;;;;;;;;;;;;;;;;;5056536;28;20278;-59
2023/11/12 16:33:56;;;;;;;;;;;;;;;;;;5040931;28;19932;-59
2023/11/12 16:36:22;;;;;;;;;;;;;;;;;;5060745;28;19932;-59
2023/11/12 16:38:48;;;;;;;;;;;;;;;;;;5058490;28;19932;-59
2023/11/12 16:41:14;;;;;;;;;;;;;;;;;;5054959;28;20290;-59